sensor_id;sensor_type;location;lat;lon;timestamp;pressure;altitude;pressure_sealevel;temperature;humidity
70544;BME280;58097;48.364;-1.224;2024-01-27T00:00:05;101563.97;;;3.64;100.00
70544;BME280;58097;48.364;-1.224;2024-01-27T00:02:30;101564.06;;;3.62;100.00
70544;BME280;58097;48.364;-1.224;2024-01-27T00:04:56;101571.53;;;3.59;100.00
70544;BME280;58097;48.364;-1.224;2024-01-27T00:07:21;101564.38;;;3.56;100.00
70544;BME280;58097;48.364;-1.224;2024-01-27T00:09:47;101567.25;;;3.53;100.00
70544;BME280;58097;48.364;-1.224;2024-01-27T00:12:12;101572.78;;;3.52;100.00
70544;BME280;58097;48.364;-1.224;2024-01-27T00:14:38;101570.00;;;3.53;100.00
70544;BME280;58097;48.364;-1.224;2024-01-27T00:17:04;101575.38;;;3.55;100.00
70544;BME280;58097;48.364;-1.224;2024-01-27T00:19:29;101575.53;;;3.52;100.00
70544;BME280;58097;48.364;-1.224;2024-01-27T00:21:54;101574.84;;;3.47;100.00
70544;BME280;58097;48.364;-1.224;2024-01-27T00:24:20;101581.34;;;3.44;100.00
70544;BME280;58097;48.364;-1.224;2024-01-27T00:26:45;101580.53;;;3.42;100.00
70544;BME280;58097;48.364;-1.224;2024-01-27T00:29:10;101581.50;;;3.41;100.00
70544;BME280;58097;48.364;-1.224;2024-01-27T00:31:36;101574.41;;;3.37;100.00
70544;BME280;58097;48.364;-1.224;2024-01-27T00:34:01;101574.56;;;3.34;100.00
70544;BME280;58097;48.364;-1.224;2024-01-27T00:36:27;101565.50;;;3.33;100.00
70544;BME280;58097;48.364;-1.224;2024-01-27T00:38:52;101551.03;;;3.31;100.00
70544;BME280;58097;48.364;-1.224;2024-01-27T00:41:18;101553.75;;;3.31;100.00
70544;BME280;58097;48.364;-1.224;2024-01-27T00:43:43;101546.50;;;3.30;100.00
70544;BME280;58097;48.364;-1.224;2024-01-27T00:46:09;101544.66;;;3.31;100.00
70544;BME280;58097;48.364;-1.224;2024-01-27T00:48:34;101539.19;;;3.31;100.00
70544;BME280;58097;48.364;-1.224;2024-01-27T00:51:00;101541.06;;;3.30;100.00
70544;BME280;58097;48.364;-1.224;2024-01-27T00:53:25;101538.31;;;3.30;100.00
70544;BME280;58097;48.364;-1.224;2024-01-27T00:55:50;101534.78;;;3.28;100.00
70544;BME280;58097;48.364;-1.224;2024-01-27T00:58:16;101533.09;;;3.26;100.00
70544;BME280;58097;48.364;-1.224;2024-01-27T01:00:41;101527.78;;;3.23;100.00
70544;BME280;58097;48.364;-1.224;2024-01-27T01:03:07;101518.06;;;3.16;100.00
70544;BME280;58097;48.364;-1.224;2024-01-27T01:05:32;101513.56;;;3.15;100.00
70544;BME280;58097;48.364;-1.224;2024-01-27T01:07:57;101516.31;;;3.15;100.00
70544;BME280;58097;48.364;-1.224;2024-01-27T01:10:23;101508.19;;;3.13;100.00
70544;BME280;58097;48.364;-1.224;2024-01-27T01:12:48;101513.50;;;3.16;100.00
70544;BME280;58097;48.364;-1.224;2024-01-27T01:15:13;101512.53;;;3.17;100.00
70544;BME280;58097;48.364;-1.224;2024-01-27T01:17:39;101507.97;;;3.18;100.00
70544;BME280;58097;48.364;-1.224;2024-01-27T01:20:05;101511.63;;;3.18;100.00
70544;BME280;58097;48.364;-1.224;2024-01-27T01:22:30;101496.84;;;3.22;100.00
70544;BME280;58097;48.364;-1.224;2024-01-27T01:24:56;101496.75;;;3.24;100.00
70544;BME280;58097;48.364;-1.224;2024-01-27T01:27:21;101498.53;;;3.25;100.00
70544;BME280;58097;48.364;-1.224;2024-01-27T01:29:47;101498.44;;;3.26;100.00
70544;BME280;58097;48.364;-1.224;2024-01-27T01:32:12;101497.50;;;3.27;100.00
70544;BME280;58097;48.364;-1.224;2024-01-27T01:34:37;101481.91;;;3.29;100.00
70544;BME280;58097;48.364;-1.224;2024-01-27T01:37:03;101483.75;;;3.29;100.00
70544;BME280;58097;48.364;-1.224;2024-01-27T01:39:28;101473.78;;;3.28;100.00
70544;BME280;58097;48.364;-1.224;2024-01-27T01:41:54;101482.06;;;3.26;100.00
70544;BME280;58097;48.364;-1.224;2024-01-27T01:44:19;101477.56;;;3.25;100.00
70544;BME280;58097;48.364;-1.224;2024-01-27T01:46:45;101487.59;;;3.25;100.00
70544;BME280;58097;48.364;-1.224;2024-01-27T01:49:11;101480.28;;;3.25;100.00
70544;BME280;58097;48.364;-1.224;2024-01-27T01:51:36;101476.66;;;3.25;100.00
70544;BME280;58097;48.364;-1.224;2024-01-27T01:54:02;101473.03;;;3.24;100.00
70544;BME280;58097;48.364;-1.224;2024-01-27T01:56:28;101475.78;;;3.24;100.00
70544;BME280;58097;48.364;-1.224;2024-01-27T01:58:54;101489.44;;;3.24;100.00
70544;BME280;58097;48.364;-1.224;2024-01-27T02:01:20;101486.06;;;3.19;100.00
70544;BME280;58097;48.364;-1.224;2024-01-27T02:03:56;101488.03;;;3.16;100.00
70544;BME280;58097;48.364;-1.224;2024-01-27T02:06:21;101487.94;;;3.17;100.00
70544;BME280;58097;48.364;-1.224;2024-01-27T02:08:47;101484.28;;;3.18;100.00
70544;BME280;58097;48.364;-1.224;2024-01-27T02:11:12;101488.84;;;3.18;100.00
70544;BME280;58097;48.364;-1.224;2024-01-27T02:13:37;101481.59;;;3.17;100.00
70544;BME280;58097;48.364;-1.224;2024-01-27T02:16:03;101473.38;;;3.18;100.00
70544;BME280;58097;48.364;-1.224;2024-01-27T02:18:29;101471.50;;;3.19;100.00
70544;BME280;58097;48.364;-1.224;2024-01-27T02:20:54;101469.59;;;3.21;100.00
70544;BME280;58097;48.364;-1.224;2024-01-27T02:23:19;101460.44;;;3.22;100.00
70544;BME280;58097;48.364;-1.224;2024-01-27T02:25:45;101473.22;;;3.21;100.00
70544;BME280;58097;48.364;-1.224;2024-01-27T02:28:10;101465.97;;;3.20;100.00
70544;BME280;58097;48.364;-1.224;2024-01-27T02:30:37;101472.53;;;3.16;100.00
70544;BME280;58097;48.364;-1.224;2024-01-27T02:33:03;101473.41;;;3.17;100.00
70544;BME280;58097;48.364;-1.224;2024-01-27T02:35:29;101478.94;;;3.15;100.00
70544;BME280;58097;48.364;-1.224;2024-01-27T02:37:54;101475.41;;;3.13;100.00
70544;BME280;58097;48.364;-1.224;2024-01-27T02:40:20;101473.47;;;3.15;100.00
70544;BME280;58097;48.364;-1.224;2024-01-27T02:42:45;101481.69;;;3.15;100.00
70544;BME280;58097;48.364;-1.224;2024-01-27T02:45:11;101473.63;;;3.12;100.00
70544;BME280;58097;48.364;-1.224;2024-01-27T02:47:39;101471.44;;;3.20;100.00
70544;BME280;58097;48.364;-1.224;2024-01-27T02:50:05;101471.63;;;3.16;100.00
70544;BME280;58097;48.364;-1.224;2024-01-27T02:52:33;101468.97;;;3.14;100.00
70544;BME280;58097;48.364;-1.224;2024-01-27T02:54:59;101466.25;;;3.14;100.00
70544;BME280;58097;48.364;-1.224;2024-01-27T02:57:24;101459.97;;;3.12;100.00
70544;BME280;58097;48.364;-1.224;2024-01-27T02:59:50;101464.47;;;3.13;100.00
70544;BME280;58097;48.364;-1.224;2024-01-27T03:02:15;101466.31;;;3.13;100.00
70544;BME280;58097;48.364;-1.224;2024-01-27T03:04:41;101466.56;;;3.08;100.00
70544;BME280;58097;48.364;-1.224;2024-01-27T03:07:06;101460.22;;;3.07;100.00
70544;BME280;58097;48.364;-1.224;2024-01-27T03:09:31;101463.91;;;3.06;100.00
70544;BME280;58097;48.364;-1.224;2024-01-27T03:11:57;101469.53;;;3.03;100.00
70544;BME280;58097;48.364;-1.224;2024-01-27T03:14:23;101479.41;;;3.06;100.00
70544;BME280;58097;48.364;-1.224;2024-01-27T03:16:48;101488.41;;;3.08;100.00
70544;BME280;58097;48.364;-1.224;2024-01-27T03:19:13;101483.84;;;3.08;100.00
70544;BME280;58097;48.364;-1.224;2024-01-27T03:21:39;101489.44;;;3.05;100.00
70544;BME280;58097;48.364;-1.224;2024-01-27T03:24:04;101479.50;;;3.04;100.00
70544;BME280;58097;48.364;-1.224;2024-01-27T03:26:29;101486.81;;;3.04;100.00
70544;BME280;58097;48.364;-1.224;2024-01-27T03:28:55;101486.56;;;3.08;100.00
70544;BME280;58097;48.364;-1.224;2024-01-27T03:31:20;101469.22;;;3.09;100.00
70544;BME280;58097;48.364;-1.224;2024-01-27T03:33:45;101459.31;;;3.07;100.00
70544;BME280;58097;48.364;-1.224;2024-01-27T03:36:12;101450.09;;;3.09;100.00
70544;BME280;58097;48.364;-1.224;2024-01-27T03:38:38;101458.22;;;3.11;100.00
70544;BME280;58097;48.364;-1.224;2024-01-27T03:41:04;101456.38;;;3.11;100.00
70544;BME280;58097;48.364;-1.224;2024-01-27T03:43:30;101452.75;;;3.11;100.00
70544;BME280;58097;48.364;-1.224;2024-01-27T03:45:57;101450.47;;;3.02;100.00
70544;BME280;58097;48.364;-1.224;2024-01-27T03:48:22;101441.41;;;3.01;100.00
70544;BME280;58097;48.364;-1.224;2024-01-27T03:50:47;101436.81;;;3.02;100.00
70544;BME280;58097;48.364;-1.224;2024-01-27T03:53:13;101434.97;;;3.02;100.00
70544;BME280;58097;48.364;-1.224;2024-01-27T03:55:39;101447.03;;;2.98;100.00
70544;BME280;58097;48.364;-1.224;2024-01-27T03:58:04;101441.63;;;2.97;100.00
70544;BME280;58097;48.364;-1.224;2024-01-27T04:00:29;101440.69;;;2.98;100.00
70544;BME280;58097;48.364;-1.224;2024-01-27T04:02:58;101443.56;;;2.95;100.00
70544;BME280;58097;48.364;-1.224;2024-01-27T04:05:24;101440.75;;;2.96;100.00
70544;BME280;58097;48.364;-1.224;2024-01-27T04:07:50;101441.63;;;2.97;100.00
70544;BME280;58097;48.364;-1.224;2024-01-27T04:10:16;101439.72;;;2.99;100.00
70544;BME280;58097;48.364;-1.224;2024-01-27T04:12:43;101446.78;;;3.03;100.00
70544;BME280;58097;48.364;-1.224;2024-01-27T04:15:09;101441.31;;;3.03;100.00
70544;BME280;58097;48.364;-1.224;2024-01-27T04:17:34;101443.09;;;3.04;100.00
70544;BME280;58097;48.364;-1.224;2024-01-27T04:20:00;101443.03;;;3.05;100.00
70544;BME280;58097;48.364;-1.224;2024-01-27T04:22:25;101434.97;;;3.02;100.00
70544;BME280;58097;48.364;-1.224;2024-01-27T04:24:51;101430.56;;;3.00;100.00
70544;BME280;58097;48.364;-1.224;2024-01-27T04:27:16;101430.63;;;2.98;100.00
70544;BME280;58097;48.364;-1.224;2024-01-27T04:29:41;101425.31;;;2.95;100.00
70544;BME280;58097;48.364;-1.224;2024-01-27T04:32:07;101426.22;;;2.96;100.00
70544;BME280;58097;48.364;-1.224;2024-01-27T04:34:32;101429.91;;;2.95;100.00
70544;BME280;58097;48.364;-1.224;2024-01-27T04:36:58;101433.53;;;2.95;100.00
70544;BME280;58097;48.364;-1.224;2024-01-27T04:39:23;101423.63;;;2.93;100.00
70544;BME280;58097;48.364;-1.224;2024-01-27T04:41:49;101431.03;;;2.91;100.00
70544;BME280;58097;48.364;-1.224;2024-01-27T04:44:14;101434.56;;;2.93;100.00
70544;BME280;58097;48.364;-1.224;2024-01-27T04:46:40;101428.38;;;2.89;100.00
70544;BME280;58097;48.364;-1.224;2024-01-27T04:49:05;101423.91;;;2.87;100.00
70544;BME280;58097;48.364;-1.224;2024-01-27T04:51:30;101418.59;;;2.84;100.00
70544;BME280;58097;48.364;-1.224;2024-01-27T04:53:56;101418.69;;;2.82;100.00
70544;BME280;58097;48.364;-1.224;2024-01-27T04:56:21;101419.56;;;2.83;100.00
70544;BME280;58097;48.364;-1.224;2024-01-27T04:58:46;101415.78;;;2.85;100.00
70544;BME280;58097;48.364;-1.224;2024-01-27T05:01:12;101408.56;;;2.84;100.00
70544;BME280;58097;48.364;-1.224;2024-01-27T05:03:37;101405.03;;;2.82;100.00
70544;BME280;58097;48.364;-1.224;2024-01-27T05:06:03;101405.03;;;2.82;100.00
70544;BME280;58097;48.364;-1.224;2024-01-27T05:08:28;101403.34;;;2.79;100.00
70544;BME280;58097;48.364;-1.224;2024-01-27T05:10:54;101404.94;;;2.84;100.00
70544;BME280;58097;48.364;-1.224;2024-01-27T05:13:19;101405.91;;;2.83;100.00
70544;BME280;58097;48.364;-1.224;2024-01-27T05:15:45;101406.94;;;2.80;100.00
70544;BME280;58097;48.364;-1.224;2024-01-27T05:18:10;101404.38;;;2.77;100.00
70544;BME280;58097;48.364;-1.224;2024-01-27T05:20:35;101395.47;;;2.73;100.00
70544;BME280;58097;48.364;-1.224;2024-01-27T05:23:01;101393.75;;;2.71;100.00
70544;BME280;58097;48.364;-1.224;2024-01-27T05:25:26;101402.13;;;2.68;100.00
70544;BME280;58097;48.364;-1.224;2024-01-27T05:27:51;101394.00;;;2.66;100.00
70544;BME280;58097;48.364;-1.224;2024-01-27T05:30:17;101398.66;;;2.64;100.00
70544;BME280;58097;48.364;-1.224;2024-01-27T05:32:42;101386.84;;;2.64;100.00
70544;BME280;58097;48.364;-1.224;2024-01-27T05:35:08;101391.25;;;2.66;100.00
70544;BME280;58097;48.364;-1.224;2024-01-27T05:37:34;101391.34;;;2.65;100.00
70544;BME280;58097;48.364;-1.224;2024-01-27T05:40:00;101391.75;;;2.74;100.00
70544;BME280;58097;48.364;-1.224;2024-01-27T05:42:25;101389.84;;;2.76;100.00
70544;BME280;58097;48.364;-1.224;2024-01-27T05:44:51;101397.72;;;2.83;100.00
70544;BME280;58097;48.364;-1.224;2024-01-27T05:47:16;101396.84;;;2.82;100.00
70544;BME280;58097;48.364;-1.224;2024-01-27T05:49:41;101390.81;;;2.75;100.00
70544;BME280;58097;48.364;-1.224;2024-01-27T05:52:07;101403.41;;;2.78;100.00
70544;BME280;58097;48.364;-1.224;2024-01-27T05:54:32;101397.38;;;2.71;100.00
70544;BME280;58097;48.364;-1.224;2024-01-27T05:56:58;101398.25;;;2.72;100.00
70544;BME280;58097;48.364;-1.224;2024-01-27T05:59:23;101403.06;;;2.67;100.00
70544;BME280;58097;48.364;-1.224;2024-01-27T06:01:49;101402.25;;;2.65;100.00
70544;BME280;58097;48.364;-1.224;2024-01-27T06:04:14;101400.41;;;2.65;100.00
70544;BME280;58097;48.364;-1.224;2024-01-27T06:06:39;101405.81;;;2.67;100.00
70544;BME280;58097;48.364;-1.224;2024-01-27T06:09:07;101403.16;;;2.65;100.00
70544;BME280;58097;48.364;-1.224;2024-01-27T06:11:36;101400.34;;;2.67;100.00
70544;BME280;58097;48.364;-1.224;2024-01-27T06:14:02;101402.03;;;2.69;100.00
70544;BME280;58097;48.364;-1.224;2024-01-27T06:16:27;101398.25;;;2.72;100.00
70544;BME280;58097;48.364;-1.224;2024-01-27T06:18:52;101396.25;;;2.75;100.00
70544;BME280;58097;48.364;-1.224;2024-01-27T06:21:19;101392.16;;;2.67;100.00
70544;BME280;58097;48.364;-1.224;2024-01-27T06:23:45;101397.69;;;2.65;100.00
70544;BME280;58097;48.364;-1.224;2024-01-27T06:26:13;101396.97;;;2.62;100.00
70544;BME280;58097;48.364;-1.224;2024-01-27T06:28:39;101396.97;;;2.62;100.00
70544;BME280;58097;48.364;-1.224;2024-01-27T06:31:04;101401.22;;;2.67;100.00
70544;BME280;58097;48.364;-1.224;2024-01-27T06:33:30;101406.53;;;2.70;100.00
70544;BME280;58097;48.364;-1.224;2024-01-27T06:35:56;101398.25;;;2.72;100.00
70544;BME280;58097;48.364;-1.224;2024-01-27T06:38:21;101395.47;;;2.73;100.00
70544;BME280;58097;48.364;-1.224;2024-01-27T06:40:46;101406.06;;;2.79;100.00
70544;BME280;58097;48.364;-1.224;2024-01-27T06:43:12;101398.75;;;2.80;100.00
70544;BME280;58097;48.364;-1.224;2024-01-27T06:45:38;101404.16;;;2.82;100.00
70544;BME280;58097;48.364;-1.224;2024-01-27T06:48:05;101410.81;;;2.76;100.00
70544;BME280;58097;48.364;-1.224;2024-01-27T06:50:31;101408.41;;;2.87;100.00
70544;BME280;58097;48.364;-1.224;2024-01-27T06:52:56;101417.22;;;2.94;100.00
70544;BME280;58097;48.364;-1.224;2024-01-27T06:55:21;101420.66;;;2.97;100.00
70544;BME280;58097;48.364;-1.224;2024-01-27T06:57:47;101421.97;;;3.07;100.00
70544;BME280;58097;48.364;-1.224;2024-01-27T07:00:13;101420.03;;;3.09;100.00
70544;BME280;58097;48.364;-1.224;2024-01-27T07:02:40;101419.59;;;3.19;100.00
70544;BME280;58097;48.364;-1.224;2024-01-27T07:05:07;101417.53;;;3.24;100.00
70544;BME280;58097;48.364;-1.224;2024-01-27T07:07:33;101406.03;;;3.34;100.00
70544;BME280;58097;48.364;-1.224;2024-01-27T07:09:58;101404.50;;;3.29;100.00
70544;BME280;58097;48.364;-1.224;2024-01-27T07:12:23;101403.28;;;3.34;100.00
70544;BME280;58097;48.364;-1.224;2024-01-27T07:14:49;101398.63;;;3.36;100.00
70544;BME280;58097;48.364;-1.224;2024-01-27T07:17:15;101394.69;;;3.42;100.00
70544;BME280;58097;48.364;-1.224;2024-01-27T07:19:40;101397.41;;;3.42;100.00
70544;BME280;58097;48.364;-1.224;2024-01-27T07:22:05;101388.97;;;3.47;100.00
70544;BME280;58097;48.364;-1.224;2024-01-27T07:24:31;101388.06;;;3.48;100.00
70544;BME280;58097;48.364;-1.224;2024-01-27T07:26:57;101389.94;;;3.46;100.00
70544;BME280;58097;48.364;-1.224;2024-01-27T07:29:23;101387.88;;;3.51;100.00
70544;BME280;58097;48.364;-1.224;2024-01-27T07:31:49;101389.72;;;3.50;100.00
70544;BME280;58097;48.364;-1.224;2024-01-27T07:34:15;101391.41;;;3.53;100.00
70544;BME280;58097;48.364;-1.224;2024-01-27T07:36:40;101391.50;;;3.51;100.00
70544;BME280;58097;48.364;-1.224;2024-01-27T07:39:06;101394.06;;;3.54;100.00
70544;BME280;58097;48.364;-1.224;2024-01-27T07:41:31;101384.75;;;3.58;100.00
70544;BME280;58097;48.364;-1.224;2024-01-27T07:43:57;101390.38;;;3.55;100.00
70544;BME280;58097;48.364;-1.224;2024-01-27T07:46:22;101394.63;;;3.61;100.00
70544;BME280;58097;48.364;-1.224;2024-01-27T07:48:51;101388.59;;;3.54;100.00
70544;BME280;58097;48.364;-1.224;2024-01-27T07:51:16;101376.53;;;3.58;100.00
70544;BME280;58097;48.364;-1.224;2024-01-27T07:53:41;101381.13;;;3.58;100.00
70544;BME280;58097;48.364;-1.224;2024-01-27T07:56:07;101384.81;;;3.57;100.00
70544;BME280;58097;48.364;-1.224;2024-01-27T07:58:33;101387.47;;;3.58;100.00
70544;BME280;58097;48.364;-1.224;2024-01-27T08:00:59;101388.09;;;3.63;100.00
70544;BME280;58097;48.364;-1.224;2024-01-27T08:03:24;101389.50;;;3.55;100.00
70544;BME280;58097;48.364;-1.224;2024-01-27T08:05:49;101389.25;;;3.59;100.00
70544;BME280;58097;48.364;-1.224;2024-01-27T08:08:15;101398.00;;;3.66;100.00
70544;BME280;58097;48.364;-1.224;2024-01-27T08:10:40;101392.34;;;3.69;100.00
70544;BME280;58097;48.364;-1.224;2024-01-27T08:13:05;101391.38;;;3.70;100.00
70544;BME280;58097;48.364;-1.224;2024-01-27T08:15:32;101404.44;;;3.65;100.00
70544;BME280;58097;48.364;-1.224;2024-01-27T08:17:57;101395.81;;;3.72;100.00
70544;BME280;58097;48.364;-1.224;2024-01-27T08:20:22;101400.00;;;3.80;100.00
70544;BME280;58097;48.364;-1.224;2024-01-27T08:22:48;101390.84;;;3.81;100.00
70544;BME280;58097;48.364;-1.224;2024-01-27T08:25:16;101400.66;;;3.85;100.00
70544;BME280;58097;48.364;-1.224;2024-01-27T08:27:42;101392.59;;;3.82;100.00
70544;BME280;58097;48.364;-1.224;2024-01-27T08:30:07;101392.53;;;3.83;100.00
70544;BME280;58097;48.364;-1.224;2024-01-27T08:32:33;101385.19;;;3.84;100.00
70544;BME280;58097;48.364;-1.224;2024-01-27T08:34:59;101387.22;;;3.80;100.00
70544;BME280;58097;48.364;-1.224;2024-01-27T08:37:25;101386.81;;;3.88;100.00
70544;BME280;58097;48.364;-1.224;2024-01-27T08:39:50;101384.88;;;3.90;100.00
70544;BME280;58097;48.364;-1.224;2024-01-27T08:42:16;101383.97;;;3.89;100.00
70544;BME280;58097;48.364;-1.224;2024-01-27T08:44:42;101394.75;;;3.92;100.00
70544;BME280;58097;48.364;-1.224;2024-01-27T08:47:07;101389.38;;;3.91;100.00
70544;BME280;58097;48.364;-1.224;2024-01-27T08:49:32;101386.56;;;3.92;100.00
70544;BME280;58097;48.364;-1.224;2024-01-27T08:51:58;101380.81;;;3.97;100.00
70544;BME280;58097;48.364;-1.224;2024-01-27T08:54:23;101385.25;;;3.99;100.00
70544;BME280;58097;48.364;-1.224;2024-01-27T08:56:49;101386.84;;;4.03;100.00
70544;BME280;58097;48.364;-1.224;2024-01-27T08:59:14;101386.78;;;4.05;100.00
70544;BME280;58097;48.364;-1.224;2024-01-27T09:01:39;101388.13;;;4.14;100.00
70544;BME280;58097;48.364;-1.224;2024-01-27T09:04:05;101392.38;;;4.19;100.00
70544;BME280;58097;48.364;-1.224;2024-01-27T09:06:30;101399.34;;;4.25;100.00
70544;BME280;58097;48.364;-1.224;2024-01-27T09:08:55;101384.44;;;4.30;100.00
70544;BME280;58097;48.364;-1.224;2024-01-27T09:11:21;101391.44;;;4.36;100.00
70544;BME280;58097;48.364;-1.224;2024-01-27T09:13:52;101385.72;;;4.41;100.00
70544;BME280;58097;48.364;-1.224;2024-01-27T09:16:18;101397.28;;;4.46;100.00
70544;BME280;58097;48.364;-1.224;2024-01-27T09:18:43;101389.69;;;4.51;100.00
70544;BME280;58097;48.364;-1.224;2024-01-27T09:21:09;101383.16;;;4.53;100.00
70544;BME280;58097;48.364;-1.224;2024-01-27T09:23:34;101396.38;;;4.61;100.00
70544;BME280;58097;48.364;-1.224;2024-01-27T09:26:00;101395.28;;;4.65;100.00
70544;BME280;58097;48.364;-1.224;2024-01-27T09:28:25;101392.78;;;4.76;100.00
70544;BME280;58097;48.364;-1.224;2024-01-27T09:30:51;101382.53;;;4.80;100.00
70544;BME280;58097;48.364;-1.224;2024-01-27T09:33:17;101393.03;;;4.87;100.00
70544;BME280;58097;48.364;-1.224;2024-01-27T09:35:48;101387.66;;;4.86;100.00
70544;BME280;58097;48.364;-1.224;2024-01-27T09:38:14;101386.16;;;4.96;100.00
70544;BME280;58097;48.364;-1.224;2024-01-27T09:40:40;101381.72;;;5.09;100.00
70544;BME280;58097;48.364;-1.224;2024-01-27T09:43:05;101384.66;;;5.06;100.00
70544;BME280;58097;48.364;-1.224;2024-01-27T09:45:31;101378.19;;;5.23;100.00
70544;BME280;58097;48.364;-1.224;2024-01-27T09:47:59;101391.22;;;5.34;100.00
70544;BME280;58097;48.364;-1.224;2024-01-27T09:50:26;101379.94;;;5.54;100.00
70544;BME280;58097;48.364;-1.224;2024-01-27T09:52:52;101376.34;;;5.68;100.00
70544;BME280;58097;48.364;-1.224;2024-01-27T09:55:18;101385.28;;;5.71;100.00
70544;BME280;58097;48.364;-1.224;2024-01-27T09:57:44;101394.38;;;5.72;100.00
70544;BME280;58097;48.364;-1.224;2024-01-27T10:00:10;101387.41;;;5.66;100.00
70544;BME280;58097;48.364;-1.224;2024-01-27T10:02:39;101389.22;;;5.81;100.00
70544;BME280;58097;48.364;-1.224;2024-01-27T10:05:06;101387.59;;;5.93;100.00
70544;BME280;58097;48.364;-1.224;2024-01-27T10:07:33;101387.50;;;5.95;100.00
70544;BME280;58097;48.364;-1.224;2024-01-27T10:09:59;101394.19;;;6.05;100.00
70544;BME280;58097;48.364;-1.224;2024-01-27T10:12:25;101383.63;;;6.13;100.00
70544;BME280;58097;48.364;-1.224;2024-01-27T10:14:51;101381.25;;;6.21;98.59
70544;BME280;58097;48.364;-1.224;2024-01-27T10:17:22;101377.81;;;6.32;98.47
70544;BME280;58097;48.364;-1.224;2024-01-27T10:19:58;101382.06;;;6.37;97.86
70544;BME280;58097;48.364;-1.224;2024-01-27T10:22:26;101373.31;;;6.31;95.10
70544;BME280;58097;48.364;-1.224;2024-01-27T10:24:51;101371.66;;;6.42;97.15
70544;BME280;58097;48.364;-1.224;2024-01-27T10:27:17;101365.59;;;6.37;95.01
70544;BME280;58097;48.364;-1.224;2024-01-27T10:29:52;101354.19;;;6.43;95.94
70544;BME280;58097;48.364;-1.224;2024-01-27T10:32:18;101349.69;;;6.28;92.66
70544;BME280;58097;48.364;-1.224;2024-01-27T10:34:43;101347.16;;;6.39;94.01
70544;BME280;58097;48.364;-1.224;2024-01-27T10:37:12;101345.44;;;6.51;95.21
70544;BME280;58097;48.364;-1.224;2024-01-27T10:39:38;101336.53;;;6.47;92.29
70544;BME280;58097;48.364;-1.224;2024-01-27T10:42:04;101357.88;;;6.57;93.04
70544;BME280;58097;48.364;-1.224;2024-01-27T10:44:31;101346.13;;;6.55;91.43
70544;BME280;58097;48.364;-1.224;2024-01-27T10:47:01;101358.88;;;6.56;91.25
70544;BME280;58097;48.364;-1.224;2024-01-27T10:49:28;101364.66;;;6.65;92.38
70544;BME280;58097;48.364;-1.224;2024-01-27T10:51:59;101357.66;;;6.74;91.94
70544;BME280;58097;48.364;-1.224;2024-01-27T10:54:27;101353.69;;;6.92;93.54
70544;BME280;58097;48.364;-1.224;2024-01-27T10:56:57;101338.91;;;7.07;92.13
70544;BME280;58097;48.364;-1.224;2024-01-27T10:59:26;101332.00;;;7.14;91.80
70544;BME280;58097;48.364;-1.224;2024-01-27T11:01:52;101328.81;;;7.21;91.46
70544;BME280;58097;48.364;-1.224;2024-01-27T11:04:20;101329.25;;;7.14;88.33
70544;BME280;58097;48.364;-1.224;2024-01-27T11:06:47;101335.81;;;7.26;89.80
70544;BME280;58097;48.364;-1.224;2024-01-27T11:09:13;101335.47;;;7.31;87.37
70544;BME280;58097;48.364;-1.224;2024-01-27T11:11:43;101331.88;;;7.43;89.22
70544;BME280;58097;48.364;-1.224;2024-01-27T11:14:10;101329.06;;;7.57;89.79
70544;BME280;58097;48.364;-1.224;2024-01-27T11:16:36;101313.97;;;7.75;92.06
70544;BME280;58097;48.364;-1.224;2024-01-27T11:19:09;101307.47;;;7.76;85.67
70544;BME280;58097;48.364;-1.224;2024-01-27T11:21:35;101304.06;;;7.98;93.00
70544;BME280;58097;48.364;-1.224;2024-01-27T11:24:01;101295.81;;;7.98;88.60
70544;BME280;58097;48.364;-1.224;2024-01-27T11:26:26;101288.22;;;7.89;85.98
70544;BME280;58097;48.364;-1.224;2024-01-27T11:28:51;101282.41;;;7.81;86.16
70544;BME280;58097;48.364;-1.224;2024-01-27T11:31:18;101265.78;;;7.83;90.46
70544;BME280;58097;48.364;-1.224;2024-01-27T11:33:46;101260.69;;;7.76;89.23
70544;BME280;58097;48.364;-1.224;2024-01-27T11:36:20;101254.97;;;7.67;88.67
70544;BME280;58097;48.364;-1.224;2024-01-27T11:38:47;101249.13;;;7.71;88.92
70544;BME280;58097;48.364;-1.224;2024-01-27T11:41:12;101251.13;;;7.69;89.65
70544;BME280;58097;48.364;-1.224;2024-01-27T11:43:37;101250.13;;;7.70;88.63
70544;BME280;58097;48.364;-1.224;2024-01-27T11:46:03;101258.50;;;7.82;90.25
70544;BME280;58097;48.364;-1.224;2024-01-27T11:48:28;101260.13;;;7.97;91.14
70544;BME280;58097;48.364;-1.224;2024-01-27T11:51:10;101264.53;;;8.12;89.88
70544;BME280;58097;48.364;-1.224;2024-01-27T11:53:36;101268.81;;;8.16;87.51
70544;BME280;58097;48.364;-1.224;2024-01-27T11:56:03;101275.50;;;8.25;85.03
70544;BME280;58097;48.364;-1.224;2024-01-27T11:58:29;101279.25;;;8.36;87.97
70544;BME280;58097;48.364;-1.224;2024-01-27T12:00:56;101271.56;;;8.42;88.48
70544;BME280;58097;48.364;-1.224;2024-01-27T12:03:22;101273.59;;;8.51;89.57
70544;BME280;58097;48.364;-1.224;2024-01-27T12:05:47;101270.09;;;8.49;87.04
70544;BME280;58097;48.364;-1.224;2024-01-27T12:08:13;101276.72;;;8.46;86.65
70544;BME280;58097;48.364;-1.224;2024-01-27T12:10:38;101274.63;;;8.37;85.12
70544;BME280;58097;48.364;-1.224;2024-01-27T12:13:03;101279.25;;;8.36;85.58
70544;BME280;58097;48.364;-1.224;2024-01-27T12:15:29;101269.22;;;8.35;86.84
70544;BME280;58097;48.364;-1.224;2024-01-27T12:17:55;101268.53;;;8.32;82.97
70544;BME280;58097;48.364;-1.224;2024-01-27T12:20:22;101264.72;;;8.34;86.22
70544;BME280;58097;48.364;-1.224;2024-01-27T12:22:47;101259.63;;;8.28;82.82
70544;BME280;58097;48.364;-1.224;2024-01-27T12:25:16;101254.91;;;8.30;81.43
70544;BME280;58097;48.364;-1.224;2024-01-27T12:27:41;101243.75;;;8.32;84.22
70544;BME280;58097;48.364;-1.224;2024-01-27T12:30:08;101237.84;;;8.25;82.19
70544;BME280;58097;48.364;-1.224;2024-01-27T12:32:33;101229.66;;;8.36;85.71
70544;BME280;58097;48.364;-1.224;2024-01-27T12:35:04;101223.72;;;8.43;86.90